Terminal Aerodrome Forecast
Issued by NWS

Home | Current Version | Previous Version | Text Only | Print | Product List | Glossary On
Versions: 1 2 3 4 5 6 7 8 9 10 11 12 13 14 15 16 17 18 19 20 21 22 23 24 25
000
FTUS42 KGSP 031143
TAFAND
TAF
KAND 031143Z 0312/0412 06007KT P6SM OVC017
      TEMPO 0315/0317 5SM -RADZ BKN008 OVC014
     FM031700 06007KT 6SM -RA BR OVC008
     FM032000 07005KT 4SM -RA BR OVC003
     FM032300 07004KT 4SM BR OVC003=

USA.gov is the U.S. government's official web portal to all federal, state and local government web resources and services.